createdAt,value
2023-04-11T00:01:50.161Z,84.12
2023-04-11T00:04:20.622Z,83.94
2023-04-11T00:06:48.818Z,84.22
2023-04-11T00:09:17.171Z,84.12
2023-04-11T00:11:44.800Z,84.41
2023-04-11T00:14:12.714Z,83.99
2023-04-11T00:16:41.638Z,83.71
2023-04-11T00:19:09.662Z,84.62
2023-04-11T00:21:40.203Z,84.47
2023-04-11T00:24:08.532Z,84.74
2023-04-11T00:26:36.131Z,85.28
2023-04-11T00:29:03.444Z,85.08
2023-04-11T00:31:31.391Z,85.97
2023-04-11T00:33:58.839Z,85.81
2023-04-11T00:36:27.131Z,86.16
2023-04-11T00:38:55.332Z,87.16
2023-04-11T00:41:24.350Z,87.42
2023-04-11T00:43:51.533Z,88.09
2023-04-11T00:46:19.220Z,88.56
2023-04-11T00:48:47.111Z,87.96
2023-04-11T00:51:19.425Z,88.19
2023-04-11T00:53:47.091Z,87.58
2023-04-11T00:56:14.761Z,88.32
2023-04-11T00:58:44.352Z,89.80
2023-04-11T01:01:11.949Z,89.92
2023-04-11T01:03:39.778Z,88.69
2023-04-11T01:06:13.183Z,90.06
2023-04-11T01:08:43.423Z,91.07
2023-04-11T01:11:13.739Z,90.09
2023-04-11T01:13:42.342Z,90.68
2023-04-11T01:16:10.346Z,90.60
2023-04-11T01:18:37.887Z,90.33
2023-04-11T01:21:05.675Z,89.93
2023-04-11T01:23:34.401Z,89.96
2023-04-11T01:26:01.907Z,90.56
2023-04-11T01:28:29.176Z,90.20
2023-04-11T01:30:57.889Z,90.71
2023-04-11T01:33:25.387Z,90.34
2023-04-11T01:35:52.980Z,89.83
2023-04-11T01:38:21.325Z,90.79
2023-04-11T01:40:49.067Z,89.42
2023-04-11T01:43:16.624Z,90.65
2023-04-11T01:45:44.371Z,90.75
2023-04-11T01:48:11.776Z,91.90
2023-04-11T01:50:39.451Z,91.67
2023-04-11T01:53:06.678Z,90.70
2023-04-11T01:55:34.220Z,89.05
2023-04-11T01:58:01.410Z,90.71
2023-04-11T02:00:28.949Z,90.18
2023-04-11T02:02:56.424Z,90.92
2023-04-11T02:05:24.133Z,90.61
2023-04-11T02:07:51.320Z,89.83
2023-04-11T02:10:19.469Z,90.20
2023-04-11T02:12:46.662Z,90.23
2023-04-11T02:15:14.208Z,90.69
2023-04-11T02:17:45.609Z,89.12
2023-04-11T02:20:14.648Z,91.10
2023-04-11T02:22:41.993Z,91.06
2023-04-11T02:25:09.816Z,92.05
2023-04-11T02:27:37.126Z,92.46
2023-04-11T02:30:06.244Z,93.68
2023-04-11T02:32:40.815Z,92.11
2023-04-11T02:35:08.820Z,92.29
2023-04-11T02:37:36.682Z,92.46
2023-04-11T02:40:05.065Z,92.15
2023-04-11T02:42:32.441Z,94.57
2023-04-11T02:45:00.391Z,93.25
2023-04-11T02:47:29.408Z,94.73
2023-04-11T02:50:01.675Z,94.69
2023-04-11T02:52:34.701Z,95.32
2023-04-11T02:55:02.276Z,94.53
2023-04-11T02:57:29.523Z,97.22
2023-04-11T02:59:58.018Z,96.34
2023-04-11T03:02:34.165Z,97.99
2023-04-11T03:05:05.334Z,98.79
2023-04-11T03:07:38.583Z,97.66
2023-04-11T03:10:07.351Z,97.97
2023-04-11T03:12:34.657Z,99.54
2023-04-11T03:15:05.437Z,98.04
2023-04-11T03:17:34.143Z,99.63
2023-04-11T03:20:02.464Z,100.00
2023-04-11T03:22:30.937Z,100.00
2023-04-11T03:24:58.889Z,100.00
2023-04-11T03:27:27.191Z,100.00
2023-04-11T03:29:59.414Z,96.68
2023-04-11T03:32:39.099Z,100.00
2023-04-11T03:35:07.226Z,100.00
2023-04-11T03:37:35.416Z,100.00
2023-04-11T03:40:04.394Z,100.00
2023-04-11T03:42:32.021Z,100.00
2023-04-11T03:45:01.483Z,100.00
2023-04-11T03:47:28.841Z,100.00
2023-04-11T03:49:56.594Z,100.00
2023-04-11T03:52:23.875Z,100.00
2023-04-11T03:54:51.833Z,100.00
2023-04-11T03:57:19.493Z,100.00
2023-04-11T03:59:48.024Z,100.00
2023-04-11T04:02:16.170Z,100.00
2023-04-11T04:04:55.218Z,100.00
2023-04-11T04:07:26.602Z,100.00
2023-04-11T04:10:00.520Z,100.00
2023-04-11T04:12:27.949Z,100.00
2023-04-11T04:15:18.576Z,100.00
2023-04-11T04:17:48.837Z,100.00
2023-04-11T04:20:36.431Z,100.00
2023-04-11T04:23:06.144Z,98.48
2023-04-11T04:25:53.053Z,98.38
2023-04-11T04:28:26.179Z,96.27
2023-04-11T04:30:58.146Z,93.01
2023-04-11T04:33:29.034Z,96.74
2023-04-11T04:36:00.262Z,99.40
2023-04-11T04:38:32.122Z,96.83
2023-04-11T04:41:00.983Z,98.13
2023-04-11T04:43:32.380Z,100.00
2023-04-11T04:46:11.572Z,97.57
2023-04-11T04:48:44.922Z,92.97
2023-04-11T04:51:12.469Z,88.47
2023-04-11T04:53:40.560Z,89.39
2023-04-11T04:56:11.911Z,90.17
2023-04-11T04:58:42.132Z,89.87
2023-04-11T05:01:13.190Z,81.65
2023-04-11T05:03:40.691Z,80.29
2023-04-11T05:06:16.988Z,87.32
2023-04-11T05:08:48.673Z,95.67
2023-04-11T05:11:16.551Z,91.11
2023-04-11T05:13:43.817Z,90.70
2023-04-11T05:16:11.678Z,88.81
2023-04-11T05:18:38.951Z,96.86
2023-04-11T05:21:06.765Z,96.71
2023-04-11T05:23:38.134Z,92.55
2023-04-11T05:26:07.888Z,87.62
2023-04-11T05:28:36.402Z,82.96
2023-04-11T05:31:08.947Z,85.17
2023-04-11T05:33:39.435Z,93.33
2023-04-11T05:36:08.439Z,92.92
2023-04-11T05:38:35.753Z,87.87
2023-04-11T05:41:03.255Z,89.63
2023-04-11T05:43:30.523Z,94.23
2023-04-11T05:46:01.968Z,95.13
2023-04-11T05:48:29.605Z,91.01
2023-04-11T05:50:58.384Z,89.30
2023-04-11T05:53:25.638Z,87.45
2023-04-11T05:55:53.192Z,91.70
2023-04-11T05:58:20.382Z,89.39
2023-04-11T06:00:50.001Z,84.83
2023-04-11T06:03:17.673Z,78.62
2023-04-11T06:05:45.492Z,79.54
2023-04-11T06:08:12.798Z,70.71
2023-04-11T06:10:40.292Z,59.13
2023-04-11T06:13:10.384Z,54.14
2023-04-11T06:15:38.353Z,48.32
2023-04-11T06:18:05.666Z,49.73
2023-04-11T06:20:33.218Z,56.31
2023-04-11T06:23:01.504Z,48.42
2023-04-11T06:25:29.246Z,50.76
2023-04-11T06:27:56.558Z,49.71
2023-04-11T06:30:24.348Z,53.92
2023-04-11T06:32:51.702Z,50.53
2023-04-11T06:35:20.563Z,42.78
2023-04-11T06:37:47.848Z,43.74
2023-04-11T06:40:17.295Z,59.49
2023-04-11T06:42:44.623Z,47.44
2023-04-11T06:45:12.372Z,52.01
2023-04-11T06:47:39.843Z,51.63
2023-04-11T06:50:08.045Z,65.44
2023-04-11T06:52:35.309Z,65.89
2023-04-11T06:55:02.917Z,63.18
2023-04-11T06:57:30.318Z,57.81
2023-04-11T06:59:57.772Z,52.34
2023-04-11T07:02:25.900Z,55.03
2023-04-11T07:04:53.644Z,49.18
2023-04-11T07:07:21.415Z,61.57
2023-04-11T07:09:48.986Z,64.29
2023-04-11T07:12:16.235Z,60.92
2023-04-11T07:14:43.729Z,57.36
2023-04-11T07:17:10.955Z,60.79
2023-04-11T07:19:38.412Z,55.62
2023-04-11T07:22:05.874Z,50.08
2023-04-11T07:24:33.635Z,49.30
2023-04-11T07:27:01.940Z,50.85
2023-04-11T07:29:29.674Z,52.65
2023-04-11T07:31:56.978Z,46.48
2023-04-11T07:34:24.661Z,46.03
2023-04-11T07:36:52.081Z,52.93
2023-04-11T07:39:19.673Z,53.82
2023-04-11T07:41:46.977Z,46.26
2023-04-11T07:44:14.472Z,53.63
2023-04-11T07:46:41.741Z,58.17
2023-04-11T07:49:09.249Z,58.98
2023-04-11T07:51:36.581Z,53.13
2023-04-11T07:54:04.154Z,56.25
2023-04-11T07:56:31.368Z,51.38
2023-04-11T07:58:58.935Z,56.27
2023-04-11T08:01:27.101Z,52.80
2023-04-11T08:03:55.833Z,55.57
2023-04-11T08:06:23.585Z,58.18
2023-04-11T08:08:51.498Z,55.45
2023-04-11T08:11:18.867Z,59.84
2023-04-11T08:13:46.391Z,65.29
2023-04-11T08:16:15.691Z,57.96
2023-04-11T08:18:43.492Z,59.02
2023-04-11T08:21:11.655Z,58.46
2023-04-11T08:23:39.891Z,47.92
2023-04-11T08:26:08.223Z,43.94
2023-04-11T08:28:36.341Z,47.27
2023-04-11T08:31:05.480Z,46.53
2023-04-11T08:33:33.491Z,51.56
2023-04-11T08:36:00.760Z,45.68
2023-04-11T08:38:28.450Z,45.56
2023-04-11T08:40:55.971Z,56.94
2023-04-11T08:43:23.963Z,48.15
2023-04-11T08:45:51.270Z,55.73
2023-04-11T08:48:21.957Z,50.35
2023-04-11T08:50:49.132Z,46.57
2023-04-11T08:53:18.961Z,51.21
2023-04-11T08:55:47.323Z,49.62
2023-04-11T08:58:14.903Z,48.53
2023-04-11T09:00:43.019Z,54.58
2023-04-11T09:03:12.286Z,57.89
2023-04-11T09:05:41.888Z,60.80
2023-04-11T09:08:11.270Z,58.66
2023-04-11T09:10:40.021Z,54.86
2023-04-11T09:13:22.268Z,55.96
2023-04-11T09:16:10.562Z,52.80
2023-04-11T09:18:43.623Z,54.63
2023-04-11T09:21:13.497Z,56.21
2023-04-11T09:23:41.398Z,51.84
2023-04-11T09:26:10.451Z,51.98
2023-04-11T09:28:54.785Z,55.34
2023-04-11T09:31:22.383Z,55.18
2023-04-11T09:33:55.316Z,52.50
2023-04-11T09:36:24.978Z,54.05
2023-04-11T09:38:53.934Z,49.43
2023-04-11T09:41:34.773Z,52.55
2023-04-11T09:44:02.723Z,48.05
2023-04-11T09:46:30.083Z,44.88
2023-04-11T09:48:57.682Z,48.28
2023-04-11T09:51:35.893Z,47.20
2023-04-11T09:54:05.884Z,46.74
2023-04-11T09:56:37.200Z,48.79
2023-04-11T09:59:05.333Z,46.09
2023-04-11T10:01:33.464Z,47.47
2023-04-11T10:04:01.589Z,49.56
2023-04-11T10:06:46.933Z,46.80
2023-04-11T10:09:15.627Z,48.11
2023-04-11T10:11:44.116Z,50.14
2023-04-11T10:14:44.332Z,50.01
2023-04-11T10:17:18.941Z,48.66
2023-04-11T10:19:51.640Z,47.08
2023-04-11T10:22:43.214Z,51.79
2023-04-11T10:25:22.001Z,50.76
2023-04-11T10:28:01.137Z,49.32
2023-04-11T10:30:41.164Z,48.25
2023-04-11T10:33:19.702Z,48.08
2023-04-11T10:36:03.078Z,48.40
2023-04-11T10:38:48.780Z,47.15
2023-04-11T10:41:27.680Z,48.41
2023-04-11T10:44:21.286Z,47.91
2023-04-11T10:46:54.358Z,44.59
2023-04-11T10:49:32.841Z,46.30
2023-04-11T10:52:17.643Z,45.07
2023-04-11T10:54:48.737Z,44.88
2023-04-11T10:57:16.485Z,48.46
2023-04-11T10:59:49.660Z,50.73
2023-04-11T11:02:18.277Z,50.64
2023-04-11T11:04:47.156Z,50.87
2023-04-11T11:07:18.040Z,51.26
2023-04-11T11:09:51.304Z,50.24
2023-04-11T11:12:19.051Z,51.89
2023-04-11T11:14:47.454Z,51.44
2023-04-11T11:17:16.880Z,51.06
2023-04-11T11:19:45.522Z,51.32
2023-04-11T11:22:17.609Z,51.84
2023-04-11T11:24:44.936Z,50.23
2023-04-11T11:27:24.192Z,51.54
2023-04-11T11:29:52.982Z,50.80
2023-04-11T11:32:30.061Z,51.34
2023-04-11T11:37:45.321Z,50.05
2023-04-11T11:40:13.248Z,48.67
2023-04-11T11:42:41.329Z,49.99
2023-04-11T11:45:19.989Z,51.14
2023-04-11T11:47:49.731Z,48.40
2023-04-11T11:50:31.483Z,50.09
2023-04-11T11:53:14.216Z,50.21
2023-04-11T11:55:42.266Z,50.28
2023-04-11T11:58:09.811Z,50.82
2023-04-11T12:00:39.393Z,50.40
2023-04-11T12:03:11.901Z,49.90
2023-04-11T12:05:39.463Z,49.63
2023-04-11T12:08:07.844Z,49.56
2023-04-11T12:10:43.287Z,48.49
2023-04-11T12:13:16.609Z,48.84
2023-04-11T12:15:46.505Z,46.78
2023-04-11T12:18:14.359Z,45.30
2023-04-11T12:20:41.853Z,45.84
2023-04-11T12:23:09.438Z,46.12
2023-04-11T12:25:37.013Z,47.36
2023-04-11T12:28:04.506Z,48.16
2023-04-11T12:30:31.751Z,46.85
2023-04-11T12:32:59.396Z,47.07
2023-04-11T12:35:26.660Z,46.72
2023-04-11T12:37:54.170Z,46.16
2023-04-11T12:40:21.535Z,45.92
2023-04-11T12:42:56.990Z,46.58
2023-04-11T12:45:26.255Z,47.41
2023-04-11T12:47:54.236Z,46.63
2023-04-11T12:50:23.868Z,45.85
2023-04-11T12:52:52.538Z,45.40
2023-04-11T12:55:19.961Z,45.76
2023-04-11T12:57:47.552Z,46.67
2023-04-11T13:00:15.426Z,46.44
2023-04-11T13:02:45.299Z,46.29
2023-04-11T13:05:17.105Z,45.57
2023-04-11T13:07:45.408Z,46.65
2023-04-11T13:10:16.825Z,46.94
2023-04-11T13:12:45.557Z,46.29
2023-04-11T13:15:15.040Z,46.65
2023-04-11T13:17:43.380Z,47.15
2023-04-11T13:20:18.177Z,46.39
2023-04-11T13:22:46.240Z,46.04
2023-04-11T13:25:13.461Z,45.22
2023-04-11T13:27:42.205Z,44.51
2023-04-11T13:30:10.722Z,45.54
2023-04-11T13:32:38.420Z,46.29
2023-04-11T13:35:06.683Z,46.32
2023-04-11T13:37:34.198Z,46.77
2023-04-11T13:40:01.608Z,46.78
2023-04-11T13:42:29.232Z,46.41
2023-04-11T13:44:56.417Z,45.87
2023-04-11T13:47:24.024Z,46.01
2023-04-11T13:49:51.276Z,47.10
2023-04-11T13:52:18.922Z,47.05
2023-04-11T13:54:46.247Z,46.28
2023-04-11T13:57:13.786Z,46.65
2023-04-11T13:59:41.160Z,46.54
2023-04-11T14:02:08.812Z,47.44
2023-04-11T14:04:36.283Z,47.72
2023-04-11T14:07:03.959Z,47.95
2023-04-11T14:09:31.255Z,47.30
2023-04-11T14:11:58.797Z,47.42
2023-04-11T14:14:26.370Z,46.36
2023-04-11T14:16:54.018Z,47.64
2023-04-11T14:19:22.775Z,47.11
2023-04-11T14:21:51.698Z,47.12
2023-04-11T14:24:22.449Z,47.84
2023-04-11T14:26:50.350Z,47.84
2023-04-11T14:29:17.816Z,47.55
2023-04-11T14:31:45.482Z,48.01
2023-04-11T14:34:12.809Z,48.47
2023-04-11T14:36:40.447Z,49.28
2023-04-11T14:39:08.301Z,48.67
2023-04-11T14:41:36.070Z,47.70
2023-04-11T14:44:03.351Z,46.91
2023-04-11T14:46:31.148Z,49.00
2023-04-11T14:48:58.417Z,48.95
2023-04-11T14:51:27.752Z,49.53
2023-04-11T14:53:59.843Z,49.21
2023-04-11T14:56:27.509Z,48.75
2023-04-11T14:58:55.056Z,47.50
2023-04-11T15:01:22.809Z,47.68
2023-04-11T15:03:50.201Z,48.11
2023-04-11T15:06:18.248Z,48.65
2023-04-11T15:08:45.847Z,49.22
2023-04-11T15:11:13.496Z,48.86
2023-04-11T15:13:40.924Z,49.73
2023-04-11T15:16:08.731Z,49.44
2023-04-11T15:18:35.938Z,49.47
2023-04-11T15:21:03.598Z,49.52
2023-04-11T15:23:31.164Z,50.46
2023-04-11T15:26:00.463Z,50.18
2023-04-11T15:28:31.986Z,49.65
2023-04-11T15:30:59.950Z,50.01
2023-04-11T15:33:27.817Z,50.79
2023-04-11T15:35:57.802Z,50.67
2023-04-11T15:38:26.840Z,49.19
2023-04-11T15:40:56.324Z,48.59
2023-04-11T15:43:24.246Z,48.59
2023-04-11T15:45:53.704Z,49.16
2023-04-11T15:48:21.040Z,48.16
2023-04-11T15:50:48.907Z,49.12
2023-04-11T15:53:16.289Z,50.59
2023-04-11T15:55:44.195Z,49.72
2023-04-11T15:58:11.635Z,51.52
2023-04-11T16:00:40.216Z,53.60
2023-04-11T16:03:08.901Z,55.04
2023-04-11T16:05:40.266Z,55.42
2023-04-11T16:08:07.965Z,54.94
2023-04-11T16:10:35.587Z,55.53
2023-04-11T16:13:03.225Z,56.21
2023-04-11T16:15:30.841Z,56.52
2023-04-11T16:17:58.118Z,56.61
2023-04-11T16:20:25.788Z,56.89
2023-04-11T16:22:53.057Z,57.06
2023-04-11T16:25:21.575Z,58.25
2023-04-11T16:27:51.167Z,57.26
2023-04-11T16:30:19.139Z,55.91
2023-04-11T16:32:46.547Z,56.38
2023-04-11T16:35:14.162Z,57.12
2023-04-11T16:37:41.904Z,57.08
2023-04-11T16:40:12.665Z,57.54
2023-04-11T16:42:40.481Z,57.13
2023-04-11T16:45:09.870Z,56.32
2023-04-11T16:47:37.817Z,56.72
2023-04-11T16:50:06.212Z,57.37
2023-04-11T16:52:33.918Z,57.32
2023-04-11T16:55:03.007Z,56.53
2023-04-11T16:57:30.326Z,57.72
2023-04-11T16:59:57.850Z,58.69
2023-04-11T17:02:25.449Z,60.29
2023-04-11T17:04:53.180Z,60.17
2023-04-11T17:07:20.686Z,62.15
2023-04-11T17:09:49.312Z,61.96
2023-04-11T17:12:16.589Z,62.61
2023-04-11T17:14:45.736Z,66.56
2023-04-11T17:17:13.116Z,69.19
2023-04-11T17:19:42.228Z,70.14
2023-04-11T17:22:09.473Z,70.33
2023-04-11T17:24:37.138Z,71.28
2023-04-11T17:27:04.532Z,72.23
2023-04-11T17:29:32.421Z,75.00
2023-04-11T17:31:59.764Z,76.28
2023-04-11T17:34:27.343Z,76.90
2023-04-11T17:36:54.880Z,77.14
2023-04-11T17:39:23.026Z,78.26
2023-04-11T17:41:50.402Z,81.31
2023-04-11T17:44:18.168Z,83.57
2023-04-11T17:46:45.705Z,83.73
2023-04-11T17:49:13.342Z,88.89
2023-04-11T17:51:48.802Z,87.96
2023-04-11T17:55:16.575Z,91.57
2023-04-11T17:58:44.338Z,98.85
2023-04-11T18:01:12.200Z,98.75
2023-04-11T18:03:41.314Z,98.16
2023-04-11T18:06:09.405Z,100.00
2023-04-11T18:11:11.074Z,100.00
2023-04-11T18:13:38.388Z,100.00
2023-04-11T18:16:06.365Z,100.00
2023-04-11T18:18:33.757Z,100.00
2023-04-11T18:21:06.649Z,100.00
2023-04-11T18:23:35.725Z,100.00
2023-04-11T18:26:03.401Z,100.00
2023-04-11T18:28:30.825Z,100.00
2023-04-11T18:30:58.433Z,100.00
2023-04-11T18:33:26.232Z,100.00
2023-04-11T18:35:54.054Z,100.00
2023-04-11T18:38:21.392Z,100.00
2023-04-11T18:40:49.484Z,100.00
2023-04-11T18:43:17.625Z,100.00
2023-04-11T18:45:46.975Z,100.00
2023-04-11T18:48:14.581Z,100.00
2023-04-11T18:50:44.664Z,100.00
2023-04-11T18:53:13.532Z,100.00
2023-04-11T18:55:41.983Z,100.00
2023-04-11T18:58:11.033Z,100.00
2023-04-11T19:00:40.136Z,100.00
2023-04-11T19:03:15.419Z,100.00
2023-04-11T19:05:45.471Z,100.00
2023-04-11T19:08:13.203Z,100.00
2023-04-11T19:10:41.218Z,100.00
2023-04-11T19:13:08.957Z,100.00
2023-04-11T19:15:37.107Z,100.00
2023-04-11T19:18:06.553Z,100.00
2023-04-11T19:20:36.592Z,100.00
2023-04-11T19:23:05.974Z,100.00
2023-04-11T19:25:34.801Z,100.00
2023-04-11T19:28:03.124Z,100.00
2023-04-11T19:30:30.952Z,100.00
2023-04-11T19:32:58.891Z,100.00
2023-04-11T19:35:27.383Z,100.00
2023-04-11T19:37:54.719Z,100.00
2023-04-11T19:40:25.839Z,100.00
2023-04-11T19:42:53.258Z,100.00
2023-04-11T19:45:22.203Z,100.00
2023-04-11T19:47:49.552Z,100.00
2023-04-11T19:50:17.806Z,100.00
2023-04-11T19:52:45.383Z,100.00
2023-04-11T19:55:12.993Z,100.00
2023-04-11T19:57:41.221Z,100.00
2023-04-11T20:00:14.467Z,100.00
2023-04-11T20:02:46.776Z,100.00
2023-04-11T20:05:16.506Z,100.00
2023-04-11T20:07:44.119Z,100.00
2023-04-11T20:10:13.071Z,100.00
2023-04-11T20:12:40.887Z,100.00
2023-04-11T20:15:09.404Z,100.00
2023-04-11T20:17:36.872Z,100.00
2023-04-11T20:20:08.976Z,100.00
2023-04-11T20:22:39.371Z,100.00
2023-04-11T20:25:08.025Z,100.00
2023-04-11T20:27:35.501Z,100.00
2023-04-11T20:30:10.384Z,100.00
2023-04-11T20:32:38.487Z,100.00
2023-04-11T20:35:08.753Z,100.00
2023-04-11T20:37:36.572Z,100.00
2023-04-11T20:40:10.257Z,100.00
2023-04-11T20:42:46.036Z,100.00
2023-04-11T20:45:16.308Z,100.00
2023-04-11T20:47:50.267Z,100.00
2023-04-11T20:50:19.378Z,100.00
2023-04-11T20:52:50.533Z,100.00
2023-04-11T20:55:18.428Z,100.00
2023-04-11T20:57:45.641Z,100.00
2023-04-11T21:00:20.096Z,100.00
2023-04-11T21:02:49.948Z,100.00
2023-04-11T21:05:19.710Z,100.00
2023-04-11T21:07:46.997Z,100.00
2023-04-11T21:10:15.765Z,100.00
2023-04-11T21:12:43.342Z,100.00
2023-04-11T21:15:11.889Z,100.00
2023-04-11T21:17:39.826Z,100.00
2023-04-11T21:20:18.102Z,100.00
2023-04-11T21:22:53.129Z,100.00
2023-04-11T21:25:21.473Z,100.00
2023-04-11T21:27:49.896Z,100.00
2023-04-11T21:30:17.705Z,100.00
2023-04-11T21:32:44.998Z,100.00
2023-04-11T21:35:12.757Z,100.00
2023-04-11T21:37:40.008Z,100.00
2023-04-11T21:40:08.168Z,100.00
2023-04-11T21:42:35.361Z,100.00
2023-04-11T21:45:02.989Z,100.00
2023-04-11T21:47:30.377Z,100.00
2023-04-11T21:49:58.002Z,100.00
2023-04-11T21:52:25.460Z,100.00
2023-04-11T21:54:53.097Z,100.00
2023-04-11T21:57:20.353Z,100.00
2023-04-11T21:59:48.027Z,100.00
2023-04-11T22:02:15.395Z,100.00
2023-04-11T22:05:01.230Z,100.00
2023-04-11T22:07:39.056Z,100.00
2023-04-11T22:10:10.009Z,100.00
2023-04-11T22:12:38.072Z,100.00
2023-04-11T22:15:06.660Z,100.00
2023-04-11T22:17:34.770Z,100.00
2023-04-11T22:20:05.024Z,100.00
2023-04-11T22:22:32.430Z,100.00
2023-04-11T22:25:00.166Z,100.00
2023-04-11T22:27:27.561Z,100.00
2023-04-11T22:29:57.911Z,100.00
2023-04-11T22:32:25.236Z,100.00
2023-04-11T22:34:52.786Z,100.00
2023-04-11T22:37:20.066Z,100.00
2023-04-11T22:39:47.569Z,100.00
2023-04-11T22:42:14.764Z,100.00
2023-04-11T22:44:42.342Z,100.00
2023-04-11T22:47:13.499Z,100.00
2023-04-11T22:49:41.161Z,100.00
2023-04-11T22:52:10.762Z,100.00
2023-04-11T22:54:38.619Z,100.00
2023-04-11T22:57:06.452Z,100.00
2023-04-11T22:59:33.954Z,100.00
2023-04-11T23:02:01.250Z,100.00
2023-04-11T23:04:31.129Z,100.00
2023-04-11T23:06:58.446Z,100.00
2023-04-11T23:09:26.477Z,100.00
2023-04-11T23:11:53.700Z,100.00
2023-04-11T23:14:22.414Z,100.00
2023-04-11T23:16:49.923Z,100.00
2023-04-11T23:19:18.951Z,100.00
2023-04-11T23:21:46.288Z,100.00
2023-04-11T23:24:14.116Z,100.00
2023-04-11T23:26:42.386Z,100.00
2023-04-11T23:29:09.906Z,100.00
2023-04-11T23:31:37.101Z,100.00
2023-04-11T23:34:04.665Z,100.00
2023-04-11T23:36:32.858Z,100.00
2023-04-11T23:39:02.251Z,100.00
2023-04-11T23:41:30.368Z,100.00
2023-04-11T23:43:58.241Z,100.00
2023-04-11T23:46:26.370Z,100.00
2023-04-11T23:48:54.127Z,100.00
2023-04-11T23:51:21.625Z,100.00
2023-04-11T23:53:49.880Z,100.00
2023-04-11T23:56:17.458Z,100.00
2023-04-11T23:58:45.202Z,100.00
